Time;durP1;ratioP1;P1;durP2;ratioP2;P2;SDS_P1;SDS_P2;PMS_P1;PMS_P2;Temp;Humidity;BMP_temperature;BMP_pressure;BME280_temperature;BME280_humidity;BME280_pressure;Samples;Min_cycle;Max_cycle;Signal;HPM_P1;HPM_P2
2022/01/17 00:03:50;;;;;;;;;;;7.00;99.90;;;;;;8395060;28;19932;-69
2022/01/17 00:07:52;;;;;;;;;;;7.00;99.90;;;;;;8391825;28;19943;-70
2022/01/17 00:11:53;;;;;;;;;;;7.00;99.90;;;;;;8401246;28;19932;-70
2022/01/17 00:16:07;;;;;;;;;;;7.00;99.90;;;;;;8395293;28;19959;-70
2022/01/17 00:20:11;;;;;;;;;;;7.10;99.90;;;;;;8398160;28;19928;-70
2022/01/17 00:24:13;;;;;;;;;;;7.10;99.90;;;;;;8395667;28;19968;-69
2022/01/17 00:28:15;;;;;;;;;;;7.10;99.90;;;;;;8379454;28;19931;-70
2022/01/17 00:32:18;;;;;;;;;;;7.10;99.90;;;;;;8395094;28;19979;-71
2022/01/17 00:36:20;;;;;;;;;;;7.10;99.90;;;;;;8400778;28;20449;-70
2022/01/17 00:40:22;;;;;;;;;;;7.10;99.90;;;;;;8393713;28;19925;-69
2022/01/17 00:44:24;;;;;;;;;;;7.10;99.90;;;;;;8398458;28;19993;-70
2022/01/17 00:48:25;;;;;;;;;;;7.10;99.90;;;;;;8391156;28;19925;-70
2022/01/17 00:52:27;;;;;;;;;;;7.00;99.90;;;;;;8380195;28;19960;-70
2022/01/17 00:56:29;;;;;;;;;;;7.00;99.90;;;;;;8396521;28;19935;-71
2022/01/17 01:00:31;;;;;;;;;;;7.00;99.90;;;;;;8375280;28;19925;-70
2022/01/17 01:04:32;;;;;;;;;;;7.00;99.90;;;;;;8396020;28;19978;-70
2022/01/17 01:08:34;;;;;;;;;;;7.00;99.90;;;;;;8393813;28;19967;-71
2022/01/17 01:12:36;;;;;;;;;;;7.00;99.90;;;;;;8398669;28;19966;-70
2022/01/17 01:16:38;;;;;;;;;;;7.00;99.90;;;;;;8398708;28;19960;-70
2022/01/17 01:29:02;;;;;;;;;;;7.00;99.90;;;;;;8393362;28;19964;-71
2022/01/17 01:33:04;;;;;;;;;;;7.00;99.90;;;;;;8396008;28;19971;-70
2022/01/17 01:37:06;;;;;;;;;;;7.00;99.90;;;;;;8388619;28;19924;-70
2022/01/17 01:41:07;;;;;;;;;;;7.00;99.90;;;;;;8397828;28;19967;-71
2022/01/17 01:45:09;;;;;;;;;;;7.00;99.90;;;;;;8379677;28;19928;-71
2022/01/17 01:49:11;;;;;;;;;;;6.90;99.90;;;;;;8393109;28;19960;-70
2022/01/17 01:53:13;;;;;;;;;;;6.90;99.90;;;;;;8391122;28;19990;-70
2022/01/17 01:57:14;;;;;;;;;;;6.80;99.90;;;;;;8400171;28;19932;-71
2022/01/17 02:01:16;;;;;;;;;;;6.80;99.90;;;;;;8391119;28;20357;-70
2022/01/17 02:05:18;;;;;;;;;;;6.80;99.90;;;;;;8392666;28;19929;-69
2022/01/17 02:09:23;;;;;;;;;;;6.80;99.90;;;;;;8395828;28;20074;-69
2022/01/17 02:13:25;;;;;;;;;;;6.70;99.90;;;;;;8397817;28;19924;-71
2022/01/17 02:17:29;;;;;;;;;;;6.70;99.90;;;;;;8390307;28;19925;-70
2022/01/17 02:21:45;;;;;;;;;;;6.70;99.90;;;;;;8365812;28;19959;-70
2022/01/17 02:25:47;;;;;;;;;;;6.60;99.90;;;;;;8390274;28;19924;-70
2022/01/17 02:29:48;;;;;;;;;;;6.60;99.90;;;;;;8372794;28;19983;-70
2022/01/17 02:33:51;;;;;;;;;;;6.40;99.90;;;;;;8393150;28;21310;-70
2022/01/17 02:37:52;;;;;;;;;;;6.40;99.90;;;;;;8395098;28;19924;-71
2022/01/17 02:41:54;;;;;;;;;;;6.30;99.90;;;;;;8397033;28;20355;-69
2022/01/17 02:49:57;;;;;;;;;;;6.10;99.90;;;;;;8393735;28;19924;-70
2022/01/17 02:53:59;;;;;;;;;;;6.00;99.90;;;;;;8399063;28;19924;-70
2022/01/17 02:58:00;;;;;;;;;;;6.00;99.90;;;;;;8406422;28;19967;-70
2022/01/17 03:02:03;;;;;;;;;;;5.90;99.90;;;;;;8391120;28;19963;-71
2022/01/17 03:06:05;;;;;;;;;;;5.80;99.90;;;;;;8400555;28;19929;-70
2022/01/17 03:10:12;;;;;;;;;;;5.70;99.90;;;;;;8404227;28;20390;-70
2022/01/17 03:14:14;;;;;;;;;;;5.70;99.90;;;;;;8398173;28;19999;-69
2022/01/17 03:18:15;;;;;;;;;;;5.60;99.90;;;;;;8376908;28;19931;-70
2022/01/17 03:22:17;;;;;;;;;;;5.50;99.90;;;;;;8405891;28;19924;-70
2022/01/17 03:26:19;;;;;;;;;;;5.50;99.90;;;;;;8397545;28;19929;-71
2022/01/17 03:30:22;;;;;;;;;;;5.40;99.90;;;;;;8395375;28;20024;-69
2022/01/17 03:34:24;;;;;;;;;;;5.30;99.90;;;;;;8396607;28;19924;-69
2022/01/17 03:38:27;;;;;;;;;;;5.20;99.90;;;;;;8396240;28;20023;-70
2022/01/17 03:42:29;;;;;;;;;;;5.10;99.90;;;;;;8403796;28;19951;-69
2022/01/17 03:46:30;;;;;;;;;;;5.10;99.90;;;;;;8394741;28;19974;-70
2022/01/17 03:50:32;;;;;;;;;;;5.00;99.90;;;;;;8374014;28;19925;-70
2022/01/17 03:54:34;;;;;;;;;;;4.90;99.90;;;;;;8393824;28;19924;-70
2022/01/17 03:58:36;;;;;;;;;;;4.90;99.90;;;;;;8381232;28;19928;-69
2022/01/17 04:02:38;;;;;;;;;;;4.80;99.90;;;;;;8392816;28;19954;-69
2022/01/17 04:06:40;;;;;;;;;;;4.80;99.90;;;;;;8375192;28;19956;-69
2022/01/17 04:10:41;;;;;;;;;;;4.80;99.90;;;;;;8396736;28;19951;-70
2022/01/17 04:14:44;;;;;;;;;;;4.70;99.90;;;;;;8389811;28;19924;-69
2022/01/17 04:18:45;;;;;;;;;;;4.70;99.90;;;;;;8395798;28;19924;-69
2022/01/17 04:22:51;;;;;;;;;;;4.70;99.90;;;;;;8381477;28;20383;-69
2022/01/17 04:26:53;;;;;;;;;;;4.70;99.90;;;;;;8399719;28;20364;-70
2022/01/17 04:30:55;;;;;;;;;;;4.80;99.90;;;;;;8375021;28;19925;-69
2022/01/17 04:34:56;;;;;;;;;;;4.90;99.90;;;;;;8402723;28;19931;-70
2022/01/17 04:38:58;;;;;;;;;;;5.00;99.90;;;;;;8378245;28;20375;-69
2022/01/17 04:43:00;;;;;;;;;;;5.10;99.90;;;;;;8399828;28;19971;-69
2022/01/17 04:47:01;;;;;;;;;;;5.10;99.90;;;;;;8405167;28;19979;-71
2022/01/17 04:51:03;;;;;;;;;;;5.20;99.90;;;;;;8385718;28;20027;-69
2022/01/17 04:55:08;;;;;;;;;;;5.10;99.90;;;;;;8394850;28;20315;-70
2022/01/17 04:59:10;;;;;;;;;;;5.10;99.90;;;;;;8396034;28;20397;-70
2022/01/17 05:03:18;;;;;;;;;;;5.00;99.90;;;;;;8391615;28;19986;-70
2022/01/17 05:07:20;;;;;;;;;;;5.00;99.90;;;;;;8390309;28;19931;-69
2022/01/17 05:11:25;;;;;;;;;;;4.90;99.90;;;;;;8381368;28;19963;-69
2022/01/17 05:15:32;;;;;;;;;;;4.80;99.90;;;;;;8389369;28;19925;-69
2022/01/17 05:19:49;;;;;;;;;;;4.70;99.90;;;;;;8378865;28;19924;-70
2022/01/17 05:23:50;;;;;;;;;;;4.60;99.90;;;;;;8377892;28;19925;-69
2022/01/17 05:27:52;;;;;;;;;;;4.50;99.90;;;;;;8383390;28;19982;-69
2022/01/17 05:31:54;;;;;;;;;;;4.50;99.90;;;;;;8390806;28;19964;-69
2022/01/17 05:35:55;;;;;;;;;;;4.40;99.90;;;;;;8401721;28;20350;-69
2022/01/17 05:39:58;;;;;;;;;;;4.40;99.90;;;;;;8390714;28;21215;-70
2022/01/17 05:44:00;;;;;;;;;;;4.40;99.90;;;;;;8381205;28;19986;-69
2022/01/17 05:48:02;;;;;;;;;;;4.40;99.90;;;;;;8391822;28;19967;-70
2022/01/17 05:52:04;;;;;;;;;;;4.40;99.90;;;;;;8390612;28;19936;-69
2022/01/17 05:56:06;;;;;;;;;;;4.40;99.90;;;;;;8391515;28;20250;-69
2022/01/17 06:00:10;;;;;;;;;;;4.40;99.90;;;;;;8394178;28;19932;-69
2022/01/17 06:04:11;;;;;;;;;;;4.40;99.90;;;;;;8370336;28;19983;-70
2022/01/17 06:08:13;;;;;;;;;;;4.40;99.90;;;;;;8370373;28;20388;-69
2022/01/17 06:12:15;;;;;;;;;;;4.40;99.90;;;;;;8369061;28;19924;-70
2022/01/17 06:16:17;;;;;;;;;;;4.40;99.90;;;;;;8392104;28;19978;-70
2022/01/17 06:20:19;;;;;;;;;;;4.30;99.90;;;;;;8387958;28;19936;-69
2022/01/17 06:24:23;;;;;;;;;;;4.30;99.90;;;;;;8373570;28;20058;-69
2022/01/17 06:28:25;;;;;;;;;;;4.30;99.90;;;;;;8364084;28;19931;-70
2022/01/17 06:32:28;;;;;;;;;;;4.30;99.90;;;;;;8383447;28;19998;-70
2022/01/17 06:36:30;;;;;;;;;;;4.20;99.90;;;;;;8382038;28;19924;-70
2022/01/17 06:40:31;;;;;;;;;;;4.20;99.90;;;;;;8393789;28;20176;-69
2022/01/17 06:44:33;;;;;;;;;;;4.20;99.90;;;;;;8373367;28;19925;-70
2022/01/17 06:48:35;;;;;;;;;;;4.20;99.90;;;;;;8388164;28;19932;-69
2022/01/17 06:52:38;;;;;;;;;;;4.20;99.90;;;;;;8398308;28;20367;-70
2022/01/17 06:56:43;;;;;;;;;;;4.30;99.90;;;;;;8393380;28;19933;-70
2022/01/17 07:00:45;;;;;;;;;;;4.30;99.90;;;;;;8370991;28;19933;-70
2022/01/17 07:04:47;;;;;;;;;;;4.40;99.90;;;;;;8397788;28;19943;-70
2022/01/17 07:08:49;;;;;;;;;;;4.40;99.90;;;;;;8390572;28;20018;-70
2022/01/17 07:12:50;;;;;;;;;;;4.40;99.90;;;;;;8404607;28;20364;-69
2022/01/17 07:16:52;;;;;;;;;;;4.40;99.90;;;;;;8394837;28;19968;-70
2022/01/17 07:20:54;;;;;;;;;;;4.40;99.90;;;;;;8395049;28;19975;-70
2022/01/17 07:24:56;;;;;;;;;;;4.40;99.90;;;;;;8399915;28;19979;-69
2022/01/17 07:28:58;;;;;;;;;;;4.30;99.90;;;;;;8379864;28;19968;-71
2022/01/17 07:33:00;;;;;;;;;;;4.40;99.90;;;;;;8390926;28;20275;-69
2022/01/17 07:37:01;;;;;;;;;;;4.40;99.90;;;;;;8403118;28;19955;-70
2022/01/17 07:41:03;;;;;;;;;;;4.50;99.90;;;;;;8377027;28;20047;-70
2022/01/17 07:45:26;;;;;;;;;;;4.60;99.90;;;;;;8400953;28;19932;-69
2022/01/17 07:49:28;;;;;;;;;;;4.70;99.90;;;;;;8383369;28;20380;-70
2022/01/17 07:53:30;;;;;;;;;;;4.80;99.90;;;;;;8398822;28;19933;-69
2022/01/17 07:57:35;;;;;;;;;;;5.00;99.90;;;;;;8403177;28;19924;-70
2022/01/17 08:01:37;;;;;;;;;;;5.10;99.90;;;;;;8385201;28;19931;-69
2022/01/17 08:05:39;;;;;;;;;;;5.20;99.90;;;;;;8378816;28;20287;-69
2022/01/17 08:09:41;;;;;;;;;;;5.30;99.90;;;;;;8403667;28;19956;-69
2022/01/17 08:13:42;;;;;;;;;;;5.40;99.90;;;;;;8400923;28;19925;-69
2022/01/17 08:17:45;;;;;;;;;;;5.50;99.90;;;;;;8397316;28;19982;-70
2022/01/17 08:21:47;;;;;;;;;;;5.50;99.90;;;;;;8394803;28;19936;-70
2022/01/17 08:25:49;;;;;;;;;;;5.60;99.90;;;;;;8389732;28;20695;-69
2022/01/17 08:29:54;;;;;;;;;;;5.60;99.90;;;;;;8397669;28;20283;-70
2022/01/17 08:34:15;;;;;;;;;;;5.60;99.90;;;;;;8378697;28;19924;-70
2022/01/17 08:38:17;;;;;;;;;;;5.70;99.90;;;;;;8390347;28;20386;-69
2022/01/17 08:42:19;;;;;;;;;;;5.80;99.90;;;;;;8390269;28;19932;-70
2022/01/17 08:46:20;;;;;;;;;;;5.80;99.90;;;;;;8383348;28;20276;-70
2022/01/17 08:50:22;;;;;;;;;;;5.80;99.90;;;;;;8378056;28;20269;-70
2022/01/17 08:54:24;;;;;;;;;;;5.90;99.90;;;;;;8391904;28;19927;-70
2022/01/17 08:58:26;;;;;;;;;;;5.90;99.90;;;;;;8375363;28;19931;-70
2022/01/17 09:02:27;;;;;;;;;;;6.00;99.90;;;;;;8367457;28;19927;-70
2022/01/17 09:06:29;;;;;;;;;;;6.00;99.90;;;;;;8394274;28;19966;-70
2022/01/17 09:10:31;;;;;;;;;;;6.10;99.90;;;;;;8378600;28;19920;-70
2022/01/17 09:14:32;;;;;;;;;;;6.10;99.90;;;;;;8388494;28;20268;-70
2022/01/17 09:18:34;;;;;;;;;;;6.10;99.90;;;;;;8377485;28;19924;-70
2022/01/17 09:22:36;;;;;;;;;;;6.10;99.90;;;;;;8391563;28;19960;-70
2022/01/17 09:26:38;;;;;;;;;;;6.20;99.90;;;;;;8378264;28;19968;-70
2022/01/17 09:30:40;;;;;;;;;;;6.30;99.90;;;;;;8392702;28;19939;-69
2022/01/17 09:34:42;;;;;;;;;;;6.40;99.90;;;;;;8389740;28;19967;-70
2022/01/17 09:38:44;;;;;;;;;;;6.40;99.90;;;;;;8391623;28;19956;-70
2022/01/17 09:42:46;;;;;;;;;;;6.50;99.90;;;;;;8372484;28;19924;-70
2022/01/17 09:46:52;;;;;;;;;;;6.60;99.90;;;;;;8391553;28;20399;-70
2022/01/17 09:51:05;;;;;;;;;;;6.60;99.90;;;;;;8393693;28;19927;-69
2022/01/17 09:55:23;;;;;;;;;;;6.70;99.90;;;;;;8377640;28;19959;-70
2022/01/17 09:59:25;;;;;;;;;;;6.80;99.90;;;;;;8391736;28;20421;-70
2022/01/17 10:03:27;;;;;;;;;;;6.90;99.90;;;;;;8389580;28;19921;-70
2022/01/17 10:07:47;;;;;;;;;;;7.00;99.90;;;;;;8385889;28;20249;-70
2022/01/17 10:12:04;;;;;;;;;;;7.10;99.90;;;;;;8374688;28;19924;-69
2022/01/17 10:16:07;;;;;;;;;;;7.10;99.90;;;;;;8388863;28;19951;-70
2022/01/17 10:20:10;;;;;;;;;;;7.20;99.90;;;;;;8392169;28;19924;-70
2022/01/17 10:29:04;;;;;;;;;;;7.40;99.90;;;;;;8389544;28;19968;-70
2022/01/17 10:37:13;;;;;;;;;;;7.50;99.90;;;;;;8392216;28;19924;-69
2022/01/17 10:41:24;;;;;;;;;;;7.50;99.90;;;;;;8374189;28;20237;-70
2022/01/17 10:45:33;;;;;;;;;;;7.60;99.90;;;;;;8390928;28;19920;-69
2022/01/17 10:49:48;;;;;;;;;;;7.60;99.90;;;;;;8384040;28;19920;-70
2022/01/17 10:53:50;;;;;;;;;;;7.70;99.90;;;;;;8401052;28;19924;-70
2022/01/17 10:57:53;;;;;;;;;;;7.80;99.90;;;;;;8391679;28;20375;-70
2022/01/17 11:01:54;;;;;;;;;;;7.80;99.90;;;;;;8394780;28;20019;-70
2022/01/17 11:05:58;;;;;;;;;;;7.80;99.90;;;;;;8396617;28;19964;-70
2022/01/17 11:10:02;;;;;;;10.30;2.85;;;8.00;99.90;;;;;;8404345;28;19935;-70
2022/01/17 11:14:08;;;;;;;7.70;2.22;;;8.00;99.90;;;;;;8395647;28;20040;-70
2022/01/17 11:18:21;;;;;;;7.38;2.05;;;8.10;99.90;;;;;;8379379;28;20051;-71
2022/01/17 11:22:23;;;;;;;7.47;1.60;;;8.10;99.90;;;;;;8394639;28;20103;-70
2022/01/17 11:26:27;;;;;;;8.15;2.15;;;8.20;99.90;;;;;;8387127;28;20040;-70
2022/01/17 11:30:29;;;;;;;;;;;8.30;99.90;;;;;;8390099;28;20060;-71
2022/01/17 11:34:31;;;;;;;;;;;8.30;99.90;;;;;;8377641;28;20279;-70
2022/01/17 11:38:39;;;;;;;;;;;8.40;99.90;;;;;;8373547;28;19970;-70
2022/01/17 11:42:45;;;;;;;;;;;8.50;99.90;;;;;;8370725;28;20045;-70
2022/01/17 11:46:53;;;;;;;;;;;8.50;99.90;;;;;;8391784;28;19920;-70
2022/01/17 11:50:56;;;;;;;;;;;8.60;99.90;;;;;;8395057;28;19927;-70
2022/01/17 11:54:57;;;;;;;;;;;8.60;99.90;;;;;;8391711;28;20356;-70
2022/01/17 11:58:59;;;;;;;;;;;8.70;99.90;;;;;;8393581;28;20279;-71
2022/01/17 12:03:20;;;;;;;;;;;8.70;99.90;;;;;;8394150;28;19920;-70
2022/01/17 12:07:23;;;;;;;;;;;8.70;99.90;;;;;;8384753;28;19924;-70
2022/01/17 12:11:28;;;;;;;;;;;8.70;99.90;;;;;;8391944;28;19920;-70
2022/01/17 12:15:50;;;;;;;;;;;8.70;99.90;;;;;;8389543;28;19959;-70
2022/01/17 12:20:09;;;;;;;;;;;8.70;99.90;;;;;;8395732;28;19981;-70
2022/01/17 12:24:17;;;;;;;;;;;8.80;99.90;;;;;;8373828;28;20339;-70
2022/01/17 12:28:19;;;;;;;;;;;8.80;99.90;;;;;;8391624;28;19924;-71
2022/01/17 12:32:24;;;;;;;;;;;8.80;99.90;;;;;;8394793;28;19967;-70
2022/01/17 12:36:29;;;;;;;;;;;8.90;99.90;;;;;;8387859;28;19928;-70
2022/01/17 12:40:33;;;;;;;;;;;8.90;99.90;;;;;;8393119;28;19920;-70
2022/01/17 12:44:39;;;;;;;;;;;8.90;99.90;;;;;;8391265;28;19951;-70
2022/01/17 12:48:41;;;;;;;;;;;9.00;99.90;;;;;;8374421;28;19920;-70
2022/01/17 12:52:42;;;;;;;;;;;9.00;99.90;;;;;;8379674;28;19925;-70
2022/01/17 12:56:46;;;;;;;;;;;9.10;99.90;;;;;;8392965;28;19920;-71
2022/01/17 13:00:49;;;;;;;;;;;9.10;99.90;;;;;;8394155;28;19920;-71
2022/01/17 13:04:54;;;;;;;;;;;9.20;99.90;;;;;;8395931;28;19931;-71
2022/01/17 13:08:57;;;;;;;;;;;9.20;99.90;;;;;;8392985;28;19943;-70
2022/01/17 13:13:00;;;;;;;;;;;9.20;99.90;;;;;;8393626;28;20410;-71
2022/01/17 13:17:06;;;;;;;;;;;9.20;99.90;;;;;;8383630;28;19975;-71
2022/01/17 13:21:07;;;;;;;;;;;9.20;99.90;;;;;;8394017;28;20296;-71
2022/01/17 13:25:09;;;;;;;;;;;9.30;99.90;;;;;;8391421;28;19971;-71
2022/01/17 13:29:11;;;;;;;;;;;9.20;99.90;;;;;;8375127;28;19920;-71
2022/01/17 13:33:13;;;;;;;;;;;9.30;99.90;;;;;;8387936;28;19954;-71
2022/01/17 13:37:15;;;;;;;;;;;9.30;99.90;;;;;;8392805;28;19925;-71
2022/01/17 13:41:33;;;;;;;;;;;9.30;99.90;;;;;;8393245;28;20011;-70
2022/01/17 13:45:37;;;;;;;;;;;9.30;99.90;;;;;;8391607;28;20271;-71
2022/01/17 13:49:39;;;;;;;;;;;9.30;99.90;;;;;;8382415;28;20378;-70
2022/01/17 13:53:41;;;;;;;;;;;9.30;99.90;;;;;;8391872;28;19952;-71
2022/01/17 13:57:43;;;;;;;;;;;9.40;99.90;;;;;;8386939;28;19959;-70
2022/01/17 14:01:44;;;;;;;;;;;9.40;99.90;;;;;;8384031;28;20275;-71
2022/01/17 14:05:48;;;;;;;;;;;9.50;99.90;;;;;;8390985;28;19993;-71
2022/01/17 14:09:49;;;;;;;;;;;9.50;99.90;;;;;;8392691;28;20380;-71
2022/01/17 14:13:55;;;;;;;;;;;9.50;99.90;;;;;;8390944;28;19971;-71
2022/01/17 14:18:07;;;;;;;;;;;9.50;99.90;;;;;;8388577;28;19942;-70
2022/01/17 14:22:08;;;;;;;;;;;9.50;99.90;;;;;;8392731;28;19947;-71
2022/01/17 14:26:23;;;;;;;;;;;9.60;99.90;;;;;;8392838;28;20079;-71
2022/01/17 14:30:26;;;;;;;;;;;9.60;99.90;;;;;;8401784;28;19975;-71
2022/01/17 14:34:29;;;;;;;;;;;9.70;99.90;;;;;;8395183;28;19924;-71
2022/01/17 14:38:31;;;;;;;;;;;9.70;99.90;;;;;;8396842;28;19920;-70
2022/01/17 14:42:36;;;;;;;;;;;9.60;99.90;;;;;;8391896;28;19924;-70
2022/01/17 14:46:48;;;;;;;;;;;9.70;99.90;;;;;;8372015;28;19924;-71
2022/01/17 14:50:50;;;;;;;;;;;9.80;99.90;;;;;;8390328;28;20423;-71
2022/01/17 15:03:26;;;;;;;;;;;10.20;99.90;;;;;;8386293;28;19931;-71
2022/01/17 15:07:27;;;;;;;;;;;10.70;99.90;;;;;;8390957;28;19940;-71
2022/01/17 15:11:29;;;;;;;;;;;11.20;99.90;;;;;;8381769;28;19920;-71
2022/01/17 15:15:32;;;;;;;;;;;11.50;99.90;;;;;;8387327;28;19967;-71
2022/01/17 15:19:33;;;;;;;;;;;11.80;99.90;;;;;;8372534;28;20023;-71
2022/01/17 15:23:35;;;;;;;;;;;11.90;99.90;;;;;;8367838;28;19928;-71
2022/01/17 15:27:37;;;;;;;;;;;11.50;99.90;;;;;;8384793;28;19921;-71
2022/01/17 15:31:41;;;;;;;;;;;11.10;99.90;;;;;;8387581;28;19990;-71
2022/01/17 15:35:42;;;;;;;;;;;10.80;99.90;;;;;;8392842;28;19978;-71
2022/01/17 15:39:45;;;;;;;;;;;10.50;99.90;;;;;;8397805;28;20017;-72
2022/01/17 15:43:52;;;;;;;;;;;10.20;99.90;;;;;;8378856;28;19929;-72
2022/01/17 15:47:54;;;;;;;;;;;10.10;99.90;;;;;;8373467;28;19931;-72
2022/01/17 15:51:55;;;;;;;;;;;9.90;99.90;;;;;;8395053;28;19996;-71
2022/01/17 15:56:00;;;;;;;;;;;9.80;99.90;;;;;;8364222;28;19925;-71
2022/01/17 16:00:04;;;;;;;;;;;9.60;99.90;;;;;;8360204;28;20288;-71
2022/01/17 16:04:05;;;;;;;;;;;9.60;99.90;;;;;;8362931;28;19932;-71
2022/01/17 16:08:07;;;;;;;;;;;9.50;99.90;;;;;;8357946;28;19925;-71
2022/01/17 16:12:11;;;;;;;;;;;9.50;99.90;;;;;;8363347;28;20016;-71
2022/01/17 16:16:13;;;;;;;;;;;9.40;99.90;;;;;;8359306;28;19935;-71
2022/01/17 16:20:15;;;;;;;;;;;9.40;99.90;;;;;;8372943;28;20240;-70
2022/01/17 16:24:16;;;;;;;;;;;9.30;99.90;;;;;;8341999;28;19956;-72
2022/01/17 16:28:23;;;;;;;;;;;9.30;99.90;;;;;;8358484;28;19920;-71
2022/01/17 16:32:26;;;;;;;;;;;9.30;99.90;;;;;;8359127;28;20008;-71
2022/01/17 16:36:28;;;;;;;;;;;9.30;99.90;;;;;;8358717;28;20365;-72
2022/01/17 16:40:30;;;;;;;;;;;9.30;99.90;;;;;;8342195;28;20324;-70
2022/01/17 16:44:33;;;;;;;;;;;9.30;99.90;;;;;;8360947;28;19925;-71
2022/01/17 16:48:38;;;;;;;;;;;9.30;99.90;;;;;;8363973;28;19928;-72
2022/01/17 16:52:39;;;;;;;;;;;9.30;99.90;;;;;;8341281;28;20360;-70
2022/01/17 16:56:41;;;;;;;;;;;9.30;99.90;;;;;;8360417;28;19968;-71
2022/01/17 17:00:43;;;;;;;;;;;9.30;99.90;;;;;;8355452;28;20376;-72
2022/01/17 17:04:44;;;;;;;;;;;9.30;99.90;;;;;;8370856;28;19927;-71
2022/01/17 17:08:46;;;;;;;;;;;9.30;99.90;;;;;;8359836;28;19975;-71
2022/01/17 17:12:48;;;;;;;;;;;9.30;99.90;;;;;;8349262;28;20031;-72
2022/01/17 17:16:50;;;;;;;;;;;9.30;99.90;;;;;;8344544;28;20337;-70
2022/01/17 17:20:52;;;;;;;;;;;9.30;99.90;;;;;;8360072;28;19935;-71
2022/01/17 17:24:54;;;;;;;;;;;9.30;99.90;;;;;;8359361;28;20399;-71
2022/01/17 17:28:55;;;;;;;;;;;9.30;99.90;;;;;;8358133;28;20027;-71
2022/01/17 17:32:57;;;;;;;;;;;9.30;99.90;;;;;;8358130;28;20354;-72
2022/01/17 17:37:04;;;;;;;;;;;9.30;99.90;;;;;;8362053;28;19971;-71
2022/01/17 17:41:06;;;;;;;;;;;9.30;99.90;;;;;;8362466;28;19964;-71
2022/01/17 17:45:08;;;;;;;;;;;9.20;99.90;;;;;;8356687;28;20348;-72
2022/01/17 17:49:09;;;;;;;;;;;9.20;99.90;;;;;;8343584;28;19925;-71
2022/01/17 17:53:11;;;;;;;;;;;9.20;99.90;;;;;;8360859;28;20336;-72
2022/01/17 17:57:13;;;;;;;;;;;9.20;99.90;;;;;;8365721;28;19924;-71
2022/01/17 18:01:16;;;;;;;;;;;9.20;99.90;;;;;;8355684;28;19935;-71
2022/01/17 18:05:37;;;;;;;;;;;9.20;99.90;;;;;;8343909;28;22225;-70
2022/01/17 18:09:39;;;;;;;;;;;9.10;99.90;;;;;;8359375;28;19959;-71
2022/01/17 18:13:41;;;;;;;;;;;9.10;99.90;;;;;;8355342;28;19967;-71
2022/01/17 18:17:42;;;;;;;;;;;9.10;99.90;;;;;;8354579;28;20364;-72
2022/01/17 18:21:44;;;;;;;;;;;9.10;99.90;;;;;;8345286;28;19924;-71
2022/01/17 18:25:48;;;;;;;;;;;9.00;99.90;;;;;;8356974;28;20056;-71
2022/01/17 18:29:49;;;;;;;;;;;8.90;99.90;;;;;;8358364;28;20285;-72
2022/01/17 18:33:51;;;;;;;;;;;8.80;99.90;;;;;;8351918;28;20234;-71
2022/01/17 18:37:53;;;;;;;;;;;8.70;99.90;;;;;;8369162;28;19963;-71
2022/01/17 18:41:54;;;;;;;;;;;8.60;99.90;;;;;;8354374;28;19955;-71
2022/01/17 18:45:56;;;;;;;;;;;8.50;99.90;;;;;;8338396;28;20027;-71
2022/01/17 18:50:01;;;;;;;;;;;8.40;99.90;;;;;;8357208;28;19927;-70
2022/01/17 18:54:03;;;;;;;;;;;8.40;99.90;;;;;;8340097;28;20086;-71
2022/01/17 18:58:05;;;;;;;;;;;8.30;99.90;;;;;;8340414;28;19964;-71
2022/01/17 19:02:07;;;;;;;;;;;8.30;99.90;;;;;;8361302;28;19920;-70
2022/01/17 19:06:08;;;;;;;;;;;8.30;99.90;;;;;;8364860;28;19924;-70
2022/01/17 19:10:11;;;;;;;;;;;8.20;99.90;;;;;;8368809;28;19963;-71
2022/01/17 19:14:12;;;;;;;;;;;8.10;99.90;;;;;;8369908;28;19979;-71
2022/01/17 19:22:15;;;;;;;;;;;8.00;99.90;;;;;;8372078;28;19955;-71
2022/01/17 19:26:21;;;;;;;;;;;7.90;99.90;;;;;;8366380;28;20015;-71
2022/01/17 19:30:23;;;;;;;;;;;7.90;99.90;;;;;;8352221;28;20340;-71
2022/01/17 19:34:25;;;;;;;;;;;7.70;99.90;;;;;;8347857;28;20018;-70
2022/01/17 19:38:26;;;;;;;;;;;7.60;99.90;;;;;;8367299;28;20037;-71
2022/01/17 19:42:28;;;;;;;;;;;7.40;99.90;;;;;;8364411;28;20277;-71
2022/01/17 19:46:30;;;;;;;12.63;3.28;;;7.30;99.90;;;;;;8364786;28;20343;-72
2022/01/17 19:50:32;;;;;;;;;;;7.20;99.90;;;;;;8374126;28;20045;-71
2022/01/17 19:54:33;;;;;;;;;;;7.20;99.90;;;;;;8344728;28;19924;-70
2022/01/17 19:58:35;;;;;;;13.43;2.42;;;7.20;99.90;;;;;;8358679;28;19967;-70
2022/01/17 20:02:37;;;;;;;;;;;7.10;99.90;;;;;;8365605;28;20420;-70
2022/01/17 20:06:39;;;;;;;8.15;2.13;;;7.10;99.90;;;;;;8364301;28;20113;-71
2022/01/17 20:10:41;;;;;;;;;;;7.00;99.90;;;;;;8372575;28;20045;-70
2022/01/17 20:14:42;;;;;;;;;;;7.00;99.90;;;;;;8358659;28;19932;-71
2022/01/17 20:18:50;;;;;;;;;;;7.00;99.90;;;;;;8367099;28;20356;-70
2022/01/17 20:22:51;;;;;;;;;;;6.90;99.90;;;;;;8373163;28;20395;-70
2022/01/17 20:26:53;;;;;;;;;;;6.90;99.90;;;;;;8365223;28;19960;-71
2022/01/17 20:30:54;;;;;;;;;;;6.80;99.90;;;;;;8364883;28;19929;-70
2022/01/17 20:34:56;;;;;;;;;;;6.80;99.90;;;;;;8369552;28;19929;-70
2022/01/17 20:38:58;;;;;;;;;;;6.80;99.90;;;;;;8369255;28;19976;-70
2022/01/17 20:43:00;;;;;;;;;;;6.70;99.90;;;;;;8368348;28;19987;-70
2022/01/17 20:47:01;;;;;;;;;;;6.60;99.90;;;;;;8370479;28;20067;-70
2022/01/17 20:51:03;;;;;;;;;;;6.50;99.90;;;;;;8371985;28;20395;-70
2022/01/17 20:55:05;;;;;;;;;;;6.30;99.90;;;;;;8368364;28;20038;-71
2022/01/17 20:59:06;;;;;;;;;;;6.20;99.90;;;;;;8365897;28;20344;-71
2022/01/17 21:03:08;;;;;;;;;;;6.10;99.90;;;;;;8356975;28;19925;-70
2022/01/17 21:07:10;;;;;;;;;;;6.00;99.90;;;;;;8370967;28;19924;-70
2022/01/17 21:11:12;;;;;;;;;;;5.90;99.90;;;;;;8370413;28;19970;-70
2022/01/17 21:15:15;;;;;;;;;;;5.80;99.90;;;;;;8365637;28;19975;-70
2022/01/17 21:19:17;;;;;;;;;;;5.80;99.90;;;;;;8371720;28;19972;-70
2022/01/17 21:23:20;;;;;;;;;;;5.70;99.90;;;;;;8367261;28;19935;-70
2022/01/17 21:27:22;;;;;;;;;;;5.70;99.90;;;;;;8367240;28;19932;-70
2022/01/17 21:31:24;;;;;;;;;;;5.60;99.90;;;;;;8357393;28;19974;-70
2022/01/17 21:35:25;;;;;;;;;;;5.50;99.90;;;;;;8364289;28;20295;-70
2022/01/17 21:39:27;;;;;;;;;;;5.40;99.90;;;;;;8367872;28;19925;-71
2022/01/17 21:43:29;;;;;;;;;;;5.30;99.90;;;;;;8350343;28;19925;-70
2022/01/17 21:47:30;;;;;;;;;;;5.30;99.90;;;;;;8365775;28;19932;-70
2022/01/17 21:51:43;;;;;;;;;;;5.20;99.90;;;;;;8364082;28;19933;-70
2022/01/17 21:55:45;;;;;;;;;;;5.10;99.90;;;;;;8352395;28;20220;-70
2022/01/17 21:59:47;;;;;;;;;;;5.00;99.90;;;;;;8363229;28;19948;-70
2022/01/17 22:03:49;;;;;;;;;;;4.90;99.90;;;;;;8383709;28;20445;-70
2022/01/17 22:07:50;;;;;;;;;;;4.80;99.90;;;;;;8374971;28;19975;-70
2022/01/17 22:11:52;;;;;;;;;;;4.80;99.90;;;;;;8378077;28;19928;-70
2022/01/17 22:15:57;;;;;;;;;;;4.70;99.90;;;;;;8359575;28;20280;-70
2022/01/17 22:19:59;;;;;;;;;;;4.70;99.90;;;;;;8383722;28;19932;-70
2022/01/17 22:24:03;;;;;;;;;;;4.50;99.90;;;;;;8361520;28;19980;-70
2022/01/17 22:28:04;;;;;;;;;;;4.50;99.90;;;;;;8381294;28;19963;-70
2022/01/17 22:32:08;;;;;;;;;;;4.40;99.90;;;;;;8385704;28;20007;-70
2022/01/17 22:36:12;;;;;;;;;;;4.40;99.90;;;;;;8359111;28;19963;-70
2022/01/17 22:40:14;;;;;;;;;;;4.40;99.90;;;;;;8391053;28;19920;-70
2022/01/17 22:44:16;;;;;;;;;;;4.30;99.90;;;;;;8387841;28;20402;-70
2022/01/17 22:48:17;;;;;;;;;;;4.30;99.90;;;;;;8400231;28;20479;-70
2022/01/17 22:52:19;;;;;;;;;;;4.20;99.90;;;;;;8390427;28;20393;-70
2022/01/17 22:56:21;;;;;;;;;;;4.20;99.90;;;;;;8377555;28;20402;-70
2022/01/17 23:00:25;;;;;;;;;;;4.20;99.90;;;;;;8392533;28;19970;-70
2022/01/17 23:04:27;;;;;;;;;;;4.20;99.90;;;;;;8389259;28;19968;-70
2022/01/17 23:08:28;;;;;;;;;;;4.20;99.90;;;;;;8384668;28;20261;-71
2022/01/17 23:12:30;;;;;;;;;;;4.10;99.90;;;;;;8368694;28;19932;-70
2022/01/17 23:16:34;;;;;;;;;;;4.10;99.90;;;;;;8386600;28;19984;-70
2022/01/17 23:20:36;;;;;;;;;;;4.10;99.90;;;;;;8377180;28;19990;-70
2022/01/17 23:24:58;;;;;;;;;;;4.10;99.90;;;;;;8384768;28;20019;-70
2022/01/17 23:29:00;;;;;;;;;;;4.00;99.90;;;;;;8391720;28;19964;-70
2022/01/17 23:37:22;;;;;;;;;;;3.80;99.90;;;;;;8383057;28;20387;-70
2022/01/17 23:41:24;;;;;;;;;;;3.80;99.90;;;;;;8389263;28;19928;-70
2022/01/17 23:45:26;;;;;;;;;;;3.70;99.90;;;;;;8390088;28;19929;-70
2022/01/17 23:49:27;;;;;;;;;;;3.60;99.90;;;;;;8388962;28;20011;-70
2022/01/17 23:53:29;;;;;;;;;;;3.50;99.90;;;;;;8390362;28;20008;-70
